createdAt,value
2023-04-14T00:02:07.054Z,3.89
2023-04-14T00:04:34.327Z,3.72
2023-04-14T00:07:01.672Z,3.80
2023-04-14T00:09:28.825Z,3.70
2023-04-14T00:11:57.274Z,3.76
2023-04-14T00:14:24.516Z,3.42
2023-04-14T00:16:51.744Z,3.59
2023-04-14T00:19:18.808Z,3.61
2023-04-14T00:21:45.786Z,3.53
2023-04-14T00:24:12.809Z,3.84
2023-04-14T00:26:39.829Z,3.79
2023-04-14T00:29:06.900Z,3.62
2023-04-14T00:31:34.506Z,3.61
2023-04-14T00:34:01.515Z,3.75
2023-04-14T00:36:29.057Z,3.41
2023-04-14T00:39:00.406Z,3.39
2023-04-14T00:41:33.149Z,3.69
2023-04-14T00:44:01.821Z,3.85
2023-04-14T00:46:29.908Z,3.92
2023-04-14T00:48:57.421Z,3.97
2023-04-14T00:51:25.125Z,3.88
2023-04-14T00:53:54.208Z,3.87
2023-04-14T00:56:22.251Z,3.89
2023-04-14T00:58:51.838Z,3.59
2023-04-14T01:01:20.262Z,3.84
2023-04-14T01:03:48.374Z,3.58
2023-04-14T01:06:15.771Z,3.70
2023-04-14T01:08:42.844Z,3.40
2023-04-14T01:11:21.562Z,3.66
2023-04-14T01:14:12.537Z,3.69
2023-04-14T01:16:45.398Z,3.48
2023-04-14T01:19:20.625Z,3.66
2023-04-14T01:21:54.329Z,3.60
2023-04-14T01:25:11.712Z,3.47
2023-04-14T01:28:32.558Z,3.64
2023-04-14T01:31:26.360Z,3.62
2023-04-14T01:34:21.120Z,3.70
2023-04-14T01:36:57.017Z,3.50
2023-04-14T01:39:30.489Z,3.52
2023-04-14T01:42:02.120Z,3.30
2023-04-14T01:44:31.217Z,3.70
2023-04-14T01:47:04.449Z,3.60
2023-04-14T01:49:33.895Z,3.62
2023-04-14T01:52:04.031Z,3.60
2023-04-14T01:54:33.325Z,3.48
2023-04-14T01:57:02.753Z,3.55
2023-04-14T01:59:33.915Z,3.29
2023-04-14T02:02:07.819Z,3.40
2023-04-14T02:04:36.401Z,3.46
2023-04-14T02:07:05.792Z,3.44
2023-04-14T02:09:34.266Z,3.30
2023-04-14T02:12:04.692Z,3.26
2023-04-14T02:14:32.964Z,3.24
2023-04-14T02:17:02.488Z,3.20
2023-04-14T02:19:30.699Z,3.12
2023-04-14T02:21:59.248Z,3.19
2023-04-14T02:24:26.666Z,2.94
2023-04-14T02:27:07.354Z,3.20
2023-04-14T02:29:36.231Z,3.20
2023-04-14T02:32:05.600Z,3.09
2023-04-14T02:34:38.302Z,3.17
2023-04-14T02:37:23.204Z,3.17
2023-04-14T02:39:55.563Z,3.09
2023-04-14T02:42:26.956Z,3.08
2023-04-14T02:45:04.381Z,3.12
2023-04-14T02:47:35.757Z,3.06
2023-04-14T02:50:06.325Z,3.14
2023-04-14T02:52:37.546Z,3.09
2023-04-14T02:55:06.172Z,2.90
2023-04-14T02:57:33.912Z,3.09
2023-04-14T03:00:03.612Z,3.11
2023-04-14T03:02:36.091Z,3.12
2023-04-14T03:05:08.869Z,2.91
2023-04-14T03:07:44.839Z,3.08
2023-04-14T03:10:15.791Z,3.10
2023-04-14T03:12:45.427Z,3.11
2023-04-14T03:15:12.590Z,2.98
2023-04-14T03:17:40.333Z,2.93
2023-04-14T03:20:09.780Z,2.84
2023-04-14T03:22:40.744Z,3.02
2023-04-14T03:25:12.347Z,2.95
2023-04-14T03:27:42.082Z,3.02
2023-04-14T03:30:12.258Z,3.02
2023-04-14T03:32:42.344Z,2.98
2023-04-14T03:35:15.373Z,2.87
2023-04-14T03:37:43.852Z,3.03
2023-04-14T03:40:13.595Z,3.08
2023-04-14T03:42:44.710Z,3.06
2023-04-14T03:45:13.333Z,3.03
2023-04-14T03:47:42.015Z,2.95
2023-04-14T03:50:11.190Z,2.91
2023-04-14T03:52:42.584Z,2.90
2023-04-14T03:55:12.471Z,2.66
2023-04-14T03:57:43.910Z,2.70
2023-04-14T04:00:15.195Z,2.67
2023-04-14T04:02:44.769Z,2.71
2023-04-14T04:05:13.092Z,2.70
2023-04-14T04:07:41.858Z,2.51
2023-04-14T04:10:10.407Z,2.59
2023-04-14T04:12:38.759Z,2.52
2023-04-14T04:15:08.870Z,2.57
2023-04-14T04:17:38.076Z,2.54
2023-04-14T04:20:09.987Z,2.32
2023-04-14T04:22:40.097Z,2.57
2023-04-14T04:25:11.277Z,2.40
2023-04-14T04:27:42.390Z,2.55
2023-04-14T04:30:16.921Z,2.31
2023-04-14T04:32:44.227Z,2.39
2023-04-14T04:35:12.570Z,2.28
2023-04-14T04:37:42.134Z,2.30
2023-04-14T04:40:10.060Z,2.35
2023-04-14T04:42:42.089Z,2.36
2023-04-14T04:45:11.189Z,2.15
2023-04-14T04:47:39.414Z,2.21
2023-04-14T04:50:07.320Z,2.31
2023-04-14T04:52:34.382Z,2.38
2023-04-14T04:55:01.418Z,2.43
2023-04-14T04:57:28.428Z,2.14
2023-04-14T04:59:55.513Z,2.37
2023-04-14T05:02:22.973Z,2.35
2023-04-14T05:04:50.656Z,2.15
2023-04-14T05:07:17.961Z,2.33
2023-04-14T05:09:45.066Z,2.24
2023-04-14T05:12:12.064Z,2.23
2023-04-14T05:14:39.098Z,2.34
2023-04-14T05:17:06.096Z,2.45
2023-04-14T05:19:33.105Z,2.45
2023-04-14T05:22:01.536Z,2.40
2023-04-14T05:24:28.556Z,2.34
2023-04-14T05:27:12.585Z,2.48
2023-04-14T05:29:41.403Z,2.59
2023-04-14T05:32:08.758Z,2.50
2023-04-14T05:34:35.844Z,2.69
2023-04-14T05:37:03.084Z,2.77
2023-04-14T05:39:30.171Z,2.65
2023-04-14T05:41:57.172Z,2.80
2023-04-14T05:44:24.312Z,2.91
2023-04-14T05:46:51.708Z,2.98
2023-04-14T05:49:18.754Z,3.07
2023-04-14T05:51:45.934Z,3.09
2023-04-14T05:54:12.964Z,3.22
2023-04-14T05:56:40.167Z,3.32
2023-04-14T05:59:07.257Z,3.32
2023-04-14T06:01:34.321Z,3.40
2023-04-14T06:04:03.693Z,3.58
2023-04-14T06:06:32.516Z,3.51
2023-04-14T06:08:59.838Z,3.57
2023-04-14T06:11:26.967Z,3.42
2023-04-14T06:13:53.965Z,3.78
2023-04-14T06:16:21.045Z,3.97
2023-04-14T06:18:48.121Z,3.86
2023-04-14T06:21:15.370Z,3.91
2023-04-14T06:23:42.435Z,3.99
2023-04-14T06:26:09.503Z,4.14
2023-04-14T06:28:36.510Z,4.29
2023-04-14T06:31:03.901Z,4.15
2023-04-14T06:33:31.650Z,4.10
2023-04-14T06:35:58.801Z,4.16
2023-04-14T06:38:26.977Z,4.46
2023-04-14T06:40:54.050Z,4.41
2023-04-14T06:43:21.173Z,4.56
2023-04-14T06:45:50.753Z,4.64
2023-04-14T06:48:17.973Z,4.61
2023-04-14T06:50:54.173Z,4.74
2023-04-14T06:53:21.902Z,4.91
2023-04-14T06:55:51.154Z,4.85
2023-04-14T06:58:18.532Z,5.09
2023-04-14T07:00:45.652Z,5.07
2023-04-14T07:03:12.820Z,4.90
2023-04-14T07:05:39.980Z,5.19
2023-04-14T07:08:07.133Z,5.44
2023-04-14T07:10:34.187Z,5.68
2023-04-14T07:13:01.178Z,5.88
2023-04-14T07:15:29.985Z,5.93
2023-04-14T07:17:59.806Z,6.24
2023-04-14T07:20:29.034Z,6.28
2023-04-14T07:22:56.140Z,6.39
2023-04-14T07:25:23.190Z,6.26
2023-04-14T07:28:02.136Z,6.67
2023-04-14T07:30:30.591Z,6.90
2023-04-14T07:32:58.282Z,7.02
2023-04-14T07:35:26.225Z,6.96
2023-04-14T07:37:53.239Z,7.06
2023-04-14T07:40:20.315Z,7.24
2023-04-14T07:42:47.719Z,7.25
2023-04-14T07:45:14.746Z,7.46
2023-04-14T07:47:41.852Z,7.43
2023-04-14T07:50:09.150Z,7.59
2023-04-14T07:52:36.950Z,7.73
2023-04-14T07:55:04.505Z,7.70
2023-04-14T07:57:33.777Z,7.93
2023-04-14T08:00:00.906Z,8.11
2023-04-14T08:02:28.124Z,8.55
2023-04-14T08:04:55.290Z,8.65
2023-04-14T08:07:22.303Z,8.86
2023-04-14T08:09:49.642Z,9.16
2023-04-14T08:12:16.646Z,9.28
2023-04-14T08:14:43.755Z,9.22
2023-04-14T08:17:10.968Z,9.25
2023-04-14T08:19:38.013Z,9.43
2023-04-14T08:22:05.372Z,9.53
2023-04-14T08:24:32.876Z,9.62
2023-04-14T08:27:02.160Z,9.67
2023-04-14T08:29:29.226Z,9.60
2023-04-14T08:31:56.241Z,9.74
2023-04-14T08:34:28.598Z,9.94
2023-04-14T08:36:56.792Z,9.91
2023-04-14T08:39:23.699Z,9.85
2023-04-14T08:41:53.416Z,9.90
2023-04-14T08:44:21.884Z,9.94
2023-04-14T08:46:52.551Z,10.40
2023-04-14T08:49:27.203Z,10.38
2023-04-14T08:51:55.282Z,10.35
2023-04-14T08:54:22.624Z,10.63
2023-04-14T08:56:49.934Z,10.94
2023-04-14T08:59:17.265Z,10.54
2023-04-14T09:01:46.058Z,10.33
2023-04-14T09:04:14.550Z,10.76
2023-04-14T09:06:41.845Z,11.05
2023-04-14T09:09:10.590Z,11.37
2023-04-14T09:11:38.009Z,11.54
2023-04-14T09:14:06.045Z,11.30
2023-04-14T09:16:33.363Z,11.66
2023-04-14T09:19:06.974Z,11.80
2023-04-14T09:21:51.554Z,11.35
2023-04-14T09:24:31.260Z,11.46
2023-04-14T09:27:05.106Z,11.32
2023-04-14T09:29:33.059Z,11.07
2023-04-14T09:32:00.237Z,10.79
2023-04-14T09:34:28.018Z,10.64
2023-04-14T09:37:02.436Z,10.34
2023-04-14T09:39:29.725Z,10.32
2023-04-14T09:41:56.935Z,10.45
2023-04-14T09:44:24.078Z,10.36
2023-04-14T09:47:02.274Z,10.46
2023-04-14T09:49:29.923Z,10.21
2023-04-14T09:52:09.340Z,10.81
2023-04-14T09:54:36.416Z,10.99
2023-04-14T09:57:04.099Z,11.28
2023-04-14T09:59:38.660Z,11.55
2023-04-14T10:02:07.877Z,11.82
2023-04-14T10:04:36.644Z,12.05
2023-04-14T10:07:07.838Z,12.36
2023-04-14T10:09:37.769Z,13.09
2023-04-14T10:12:09.978Z,13.17
2023-04-14T10:14:38.816Z,13.28
2023-04-14T10:17:07.164Z,13.08
2023-04-14T10:19:36.149Z,13.12
2023-04-14T10:22:05.881Z,13.35
2023-04-14T10:24:33.703Z,13.68
2023-04-14T10:27:02.940Z,13.95
2023-04-14T10:29:30.869Z,13.40
2023-04-14T10:32:05.740Z,13.53
2023-04-14T10:34:33.665Z,13.28
2023-04-14T10:37:14.342Z,13.71
2023-04-14T10:39:42.849Z,13.39
2023-04-14T10:42:10.019Z,13.12
2023-04-14T10:44:37.134Z,12.99
2023-04-14T10:47:07.429Z,12.82
2023-04-14T10:49:37.156Z,12.72
2023-04-14T10:52:29.739Z,12.81
2023-04-14T10:55:08.157Z,12.86
2023-04-14T10:57:43.446Z,12.86
2023-04-14T11:00:19.687Z,12.90
2023-04-14T11:03:08.195Z,12.65
2023-04-14T11:05:35.701Z,12.96
2023-04-14T11:08:13.557Z,13.05
2023-04-14T11:10:41.817Z,13.24
2023-04-14T11:13:12.668Z,12.91
2023-04-14T11:15:46.847Z,12.95
2023-04-14T11:18:16.650Z,13.46
2023-04-14T11:20:44.218Z,13.45
2023-04-14T11:23:16.301Z,13.62
2023-04-14T11:25:43.865Z,13.32
2023-04-14T11:28:11.286Z,13.29
2023-04-14T11:30:40.592Z,13.38
2023-04-14T11:33:07.681Z,13.69
2023-04-14T11:35:34.808Z,13.39
2023-04-14T11:38:01.970Z,13.44
2023-04-14T11:40:29.143Z,13.45
2023-04-14T11:42:57.845Z,13.73
2023-04-14T11:45:31.773Z,13.59
2023-04-14T11:48:00.118Z,13.54
2023-04-14T11:50:30.149Z,13.28
2023-04-14T11:52:59.455Z,13.38
2023-04-14T11:55:27.256Z,13.35
2023-04-14T11:57:58.063Z,13.26
2023-04-14T12:00:25.414Z,13.33
2023-04-14T12:02:52.746Z,13.03
2023-04-14T12:05:31.553Z,12.86
2023-04-14T12:08:12.201Z,13.00
2023-04-14T12:10:41.972Z,13.08
2023-04-14T12:13:11.167Z,13.15
2023-04-14T12:15:42.221Z,13.47
2023-04-14T12:18:13.707Z,14.16
2023-04-14T12:20:54.332Z,14.12
2023-04-14T12:23:21.900Z,13.81
2023-04-14T12:25:49.472Z,13.80
2023-04-14T12:28:24.908Z,14.06
2023-04-14T12:30:54.186Z,13.80
2023-04-14T12:33:27.800Z,13.58
2023-04-14T12:36:10.115Z,13.81
2023-04-14T12:38:37.601Z,13.78
2023-04-14T12:41:05.364Z,13.51
2023-04-14T12:43:35.358Z,13.99
2023-04-14T12:46:07.849Z,13.66
2023-04-14T12:48:44.482Z,14.09
2023-04-14T12:51:13.326Z,14.02
2023-04-14T12:53:41.299Z,14.05
2023-04-14T12:56:09.330Z,14.00
2023-04-14T12:58:37.911Z,13.75
2023-04-14T13:01:11.248Z,13.58
2023-04-14T13:03:46.895Z,13.91
2023-04-14T13:06:16.484Z,14.03
2023-04-14T13:08:46.056Z,14.02
2023-04-14T13:11:16.940Z,13.90
2023-04-14T13:13:45.477Z,14.04
2023-04-14T13:16:16.807Z,13.94
2023-04-14T13:18:45.829Z,13.90
2023-04-14T13:21:13.280Z,13.57
2023-04-14T13:23:40.950Z,13.81
2023-04-14T13:26:08.378Z,13.89
2023-04-14T13:28:36.440Z,13.73
2023-04-14T13:31:03.886Z,13.87
2023-04-14T13:33:33.358Z,13.86
2023-04-14T13:36:01.956Z,13.91
2023-04-14T13:38:29.264Z,13.82
2023-04-14T13:40:56.383Z,14.24
2023-04-14T13:43:23.487Z,14.32
2023-04-14T13:45:50.704Z,14.69
2023-04-14T13:48:17.923Z,14.58
2023-04-14T13:50:44.927Z,14.88
2023-04-14T13:53:12.248Z,14.60
2023-04-14T13:55:39.449Z,14.67
2023-04-14T13:58:06.606Z,14.82
2023-04-14T14:00:33.908Z,14.70
2023-04-14T14:03:01.202Z,14.70
2023-04-14T14:05:28.760Z,14.54
2023-04-14T14:07:56.480Z,14.18
2023-04-14T14:10:23.850Z,14.37
2023-04-14T14:12:51.637Z,14.25
2023-04-14T14:15:18.802Z,14.45
2023-04-14T14:17:46.091Z,14.65
2023-04-14T14:20:13.165Z,14.54
2023-04-14T14:22:40.367Z,14.52
2023-04-14T14:25:19.396Z,14.27
2023-04-14T14:27:48.342Z,14.04
2023-04-14T14:30:15.786Z,14.01
2023-04-14T14:32:43.004Z,14.15
2023-04-14T14:35:10.375Z,13.90
2023-04-14T14:37:37.519Z,13.69
2023-04-14T14:40:05.523Z,13.93
2023-04-14T14:42:32.621Z,13.83
2023-04-14T14:44:59.774Z,13.77
2023-04-14T14:47:28.402Z,13.57
2023-04-14T14:50:01.673Z,14.01
2023-04-14T14:52:36.598Z,14.41
2023-04-14T14:55:04.742Z,14.37
2023-04-14T14:57:31.773Z,14.46
2023-04-14T14:59:58.841Z,14.45
2023-04-14T15:02:26.458Z,14.18
2023-04-14T15:04:54.269Z,14.51
2023-04-14T15:07:21.344Z,14.25
2023-04-14T15:09:49.868Z,13.99
2023-04-14T15:12:17.466Z,14.10
2023-04-14T15:14:44.743Z,14.18
2023-04-14T15:17:11.865Z,14.06
2023-04-14T15:19:39.142Z,14.45
2023-04-14T15:22:06.178Z,14.64
2023-04-14T15:24:33.312Z,14.77
2023-04-14T15:27:02.460Z,14.43
2023-04-14T15:29:30.442Z,14.81
2023-04-14T15:31:57.531Z,15.27
2023-04-14T15:34:25.243Z,15.72
2023-04-14T15:36:52.324Z,16.35
2023-04-14T15:39:19.400Z,17.22
2023-04-14T15:41:47.537Z,17.28
2023-04-14T15:44:14.622Z,17.41
2023-04-14T15:46:41.713Z,17.05
2023-04-14T15:49:08.769Z,16.87
2023-04-14T15:51:35.805Z,17.82
2023-04-14T15:54:03.428Z,18.40
2023-04-14T15:56:31.088Z,19.72
2023-04-14T15:58:58.147Z,19.53
2023-04-14T16:01:25.265Z,19.74
2023-04-14T16:04:22.133Z,19.54
2023-04-14T16:06:40.090Z,20.68
2023-04-14T16:09:07.216Z,19.87
2023-04-14T16:11:34.464Z,19.05
2023-04-14T16:14:01.770Z,19.05
2023-04-14T16:16:29.049Z,18.31
2023-04-14T16:18:56.112Z,17.72
2023-04-14T16:21:23.168Z,17.88
2023-04-14T16:23:50.706Z,17.26
2023-04-14T16:26:17.750Z,16.55
2023-04-14T16:28:45.308Z,15.61
2023-04-14T16:31:12.846Z,15.47
2023-04-14T16:33:39.840Z,15.58
2023-04-14T16:36:07.635Z,15.34
2023-04-14T16:38:34.835Z,15.06
2023-04-14T16:41:02.297Z,15.29
2023-04-14T16:43:29.767Z,15.82
2023-04-14T16:46:04.150Z,15.94
2023-04-14T16:48:35.778Z,16.34
2023-04-14T16:51:04.516Z,16.68
2023-04-14T16:53:31.672Z,16.58
2023-04-14T16:56:04.002Z,16.54
2023-04-14T16:58:31.234Z,16.36
2023-04-14T17:00:58.707Z,15.98
2023-04-14T17:03:25.927Z,15.98
2023-04-14T17:05:53.443Z,15.88
2023-04-14T17:08:20.684Z,15.45
2023-04-14T17:10:47.874Z,16.02
2023-04-14T17:13:15.561Z,15.88
2023-04-14T17:15:43.883Z,16.53
2023-04-14T17:18:11.813Z,16.24
2023-04-14T17:20:40.853Z,15.78
2023-04-14T17:23:09.288Z,14.97
2023-04-14T17:25:37.273Z,14.82
2023-04-14T17:28:06.007Z,14.58
2023-04-14T17:30:34.708Z,14.27
2023-04-14T17:33:03.677Z,13.65
2023-04-14T17:35:33.407Z,13.63
2023-04-14T17:38:00.835Z,13.30
2023-04-14T17:40:28.320Z,13.05
2023-04-14T17:42:55.632Z,12.90
2023-04-14T17:45:23.206Z,12.47
2023-04-14T17:47:52.320Z,12.53
2023-04-14T17:50:21.000Z,12.37
2023-04-14T17:52:49.901Z,12.48
2023-04-14T17:55:17.605Z,12.34
2023-04-14T17:57:47.948Z,12.18
2023-04-14T18:00:15.304Z,12.11
2023-04-14T18:02:45.120Z,12.09
2023-04-14T18:05:13.116Z,12.23
2023-04-14T18:07:41.910Z,12.01
2023-04-14T18:10:09.306Z,11.89
2023-04-14T18:12:36.696Z,11.94
2023-04-14T18:15:05.260Z,11.81
2023-04-14T18:17:32.372Z,11.57
2023-04-14T18:19:59.536Z,11.41
2023-04-14T18:22:27.325Z,11.47
2023-04-14T18:24:54.448Z,11.34
2023-04-14T18:29:53.016Z,11.31
2023-04-14T18:32:20.650Z,11.28
2023-04-14T18:34:48.317Z,11.13
2023-04-14T18:37:15.801Z,11.10
2023-04-14T18:39:43.483Z,10.89
2023-04-14T18:42:11.327Z,11.02
2023-04-14T18:44:38.460Z,10.80
2023-04-14T18:47:05.493Z,11.13
2023-04-14T18:49:32.560Z,10.91
2023-04-14T18:51:59.561Z,10.99
2023-04-14T18:54:26.715Z,11.03
2023-04-14T18:56:53.757Z,11.00
2023-04-14T18:59:21.973Z,10.90
2023-04-14T19:01:49.047Z,10.88
2023-04-14T19:04:16.151Z,10.50
2023-04-14T19:06:43.861Z,10.37
2023-04-14T19:09:11.092Z,10.12
2023-04-14T19:11:38.114Z,10.00
2023-04-14T19:14:05.430Z,9.97
2023-04-14T19:16:32.879Z,9.80
2023-04-14T19:19:00.790Z,9.42
2023-04-14T19:21:28.278Z,9.56
2023-04-14T19:23:57.023Z,9.46
2023-04-14T19:26:24.249Z,9.46
2023-04-14T19:28:53.315Z,9.57
2023-04-14T19:31:21.352Z,9.37
2023-04-14T19:33:49.153Z,9.36
2023-04-14T19:36:17.286Z,9.12
2023-04-14T19:38:44.480Z,9.33
2023-04-14T19:41:12.004Z,9.27
2023-04-14T19:43:39.262Z,9.04
2023-04-14T19:46:07.824Z,9.22
2023-04-14T19:48:35.072Z,9.18
2023-04-14T19:51:02.357Z,9.09
2023-04-14T19:53:30.053Z,8.97
2023-04-14T19:55:58.424Z,9.00
2023-04-14T19:58:28.417Z,8.81
2023-04-14T20:00:58.858Z,8.51
2023-04-14T20:03:26.852Z,8.56
2023-04-14T20:05:56.639Z,8.58
2023-04-14T20:08:25.202Z,8.67
2023-04-14T20:10:54.219Z,8.48
2023-04-14T20:13:23.755Z,8.40
2023-04-14T20:15:53.783Z,8.37
2023-04-14T20:18:22.412Z,8.26
2023-04-14T20:20:50.076Z,8.28
2023-04-14T20:23:17.272Z,8.13
2023-04-14T20:25:45.456Z,7.66
2023-04-14T20:28:13.823Z,7.82
2023-04-14T20:30:43.223Z,7.96
2023-04-14T20:33:11.167Z,8.02
2023-04-14T20:35:40.254Z,8.03
2023-04-14T20:38:07.528Z,7.86
2023-04-14T20:40:35.346Z,7.52
2023-04-14T20:43:02.529Z,7.45
2023-04-14T20:45:29.889Z,7.18
2023-04-14T20:47:57.140Z,7.52
2023-04-14T20:50:24.436Z,7.56
2023-04-14T20:52:51.551Z,7.21
2023-04-14T20:55:19.436Z,7.44
2023-04-14T20:57:47.940Z,7.33
2023-04-14T21:00:16.621Z,7.37
2023-04-14T21:02:44.294Z,7.39
2023-04-14T21:05:12.590Z,7.08
2023-04-14T21:07:39.967Z,7.14
2023-04-14T21:10:10.252Z,7.17
2023-04-14T21:13:49.586Z,7.16
2023-04-14T21:15:47.955Z,7.04
2023-04-14T21:18:12.952Z,7.08
2023-04-14T21:20:40.023Z,6.96
2023-04-14T21:23:07.217Z,7.02
2023-04-14T21:25:35.412Z,6.74
2023-04-14T21:28:03.627Z,6.84
2023-04-14T21:30:31.581Z,6.43
2023-04-14T21:32:59.085Z,6.64
2023-04-14T21:35:26.202Z,6.65
2023-04-14T21:37:53.231Z,6.52
2023-04-14T21:40:20.382Z,6.38
2023-04-14T21:42:47.453Z,6.52
2023-04-14T21:45:14.565Z,6.17
2023-04-14T21:47:41.827Z,6.35
2023-04-14T21:50:09.683Z,6.31
2023-04-14T21:52:36.985Z,6.20
2023-04-14T21:55:04.312Z,6.21
2023-04-14T21:57:48.300Z,6.09
2023-04-14T22:00:17.761Z,5.92
2023-04-14T22:02:45.607Z,6.05
2023-04-14T22:05:16.117Z,6.03
2023-04-14T22:07:43.130Z,6.03
2023-04-14T22:10:11.904Z,6.02
2023-04-14T22:12:42.544Z,5.71
2023-04-14T22:15:10.538Z,5.82
2023-04-14T22:17:38.834Z,5.44
2023-04-14T22:20:06.753Z,5.46
2023-04-14T22:22:34.707Z,5.74
2023-04-14T22:25:03.596Z,5.56
2023-04-14T22:27:31.312Z,5.48
2023-04-14T22:29:58.339Z,5.54
2023-04-14T22:32:25.693Z,5.66
2023-04-14T22:34:52.910Z,5.31
2023-04-14T22:37:19.905Z,5.44
2023-04-14T22:39:46.982Z,5.45
2023-04-14T22:42:13.993Z,5.36
2023-04-14T22:44:41.185Z,5.09
2023-04-14T22:47:08.491Z,5.36
2023-04-14T22:49:35.595Z,5.18
2023-04-14T22:52:02.773Z,5.25
2023-04-14T22:54:29.862Z,5.28
2023-04-14T22:56:57.057Z,5.05
2023-04-14T22:59:25.711Z,5.20
2023-04-14T23:01:53.904Z,5.09
2023-04-14T23:04:21.158Z,5.10
2023-04-14T23:06:48.666Z,4.74
2023-04-14T23:09:16.074Z,4.92
2023-04-14T23:11:43.200Z,5.01
2023-04-14T23:14:10.500Z,4.96
2023-04-14T23:16:37.568Z,4.79
2023-04-14T23:19:04.830Z,4.76
2023-04-14T23:21:32.195Z,4.69
2023-04-14T23:23:59.196Z,4.56
2023-04-14T23:26:26.352Z,4.48
2023-04-14T23:28:53.546Z,4.70
2023-04-14T23:31:20.939Z,4.43
2023-04-14T23:33:50.803Z,4.41
2023-04-14T23:36:18.690Z,4.50
2023-04-14T23:38:45.962Z,4.38
2023-04-14T23:41:13.314Z,4.36
2023-04-14T23:43:40.420Z,4.32
2023-04-14T23:46:07.446Z,4.47
2023-04-14T23:48:34.464Z,4.36
2023-04-14T23:51:15.020Z,4.37
2023-04-14T23:53:49.032Z,4.12
2023-04-14T23:56:16.359Z,4.22
2023-04-14T23:58:43.772Z,4.17
